Time;durP1;ratioP1;P1;durP2;ratioP2;P2;SDS_P1;SDS_P2;PMS_P1;PMS_P2;Temp;Humidity;BMP_temperature;BMP_pressure;BME280_temperature;BME280_humidity;BME280_pressure;Samples;Min_cycle;Max_cycle;Signal;HPM_P1;HPM_P2
2023/11/07 00:01:39;;;;;;;7.35;2.30;;;;;;;;;;4965598;28;20018;-77
2023/11/07 00:04:07;;;;;;;8.75;2.80;;;;;;;;;;4955972;28;20026;-77
2023/11/07 00:06:33;;;;;;;10.90;3.10;;;;;;;;;;4976846;28;20530;-77
2023/11/07 00:08:58;;;;;;;8.13;2.92;;;;;;;;;;4956147;28;20034;-77
2023/11/07 00:11:24;;;;;;;10.13;3.50;;;;;;;;;;4974528;28;20026;-77
2023/11/07 00:13:50;;;;;;;8.75;3.28;;;;;;;;;;4980107;28;20039;-77
2023/11/07 00:16:17;;;;;;;7.38;2.60;;;;;;;;;;4963499;28;20121;-77
2023/11/07 00:18:42;;;;;;;10.02;3.05;;;;;;;;;;4975913;28;20026;-77
2023/11/07 00:21:08;;;;;;;9.10;2.75;;;;;;;;;;4972917;28;20101;-77
2023/11/07 00:23:33;;;;;;;6.38;3.00;;;;;;;;;;4960440;28;20477;-77
2023/11/07 00:25:59;;;;;;;6.53;2.78;;;;;;;;;;4963084;28;20026;-77
2023/11/07 00:28:27;;;;;;;6.65;2.60;;;;;;;;;;4978325;28;20041;-77
2023/11/07 00:30:52;;;;;;;7.00;2.38;;;;;;;;;;4954844;28;20058;-77
2023/11/07 00:33:18;;;;;;;8.68;2.65;;;;;;;;;;4958828;28;20030;-77
2023/11/07 00:35:44;;;;;;;7.03;2.45;;;;;;;;;;4955415;28;20038;-78
2023/11/07 00:38:09;;;;;;;10.70;2.90;;;;;;;;;;4967964;28;20035;-77
2023/11/07 00:40:35;;;;;;;8.98;2.63;;;;;;;;;;4974160;28;20370;-77
2023/11/07 00:43:00;;;;;;;6.40;2.70;;;;;;;;;;4976465;28;20062;-77
2023/11/07 00:45:26;;;;;;;9.38;2.70;;;;;;;;;;4961827;28;20026;-77
2023/11/07 00:47:51;;;;;;;6.43;2.47;;;;;;;;;;4976101;28;20477;-77
2023/11/07 00:50:17;;;;;;;8.82;2.50;;;;;;;;;;4975322;28;20034;-77
2023/11/07 00:52:42;;;;;;;8.10;2.42;;;;;;;;;;4977318;28;20452;-77
2023/11/07 00:55:08;;;;;;;6.18;2.47;;;;;;;;;;4952979;28;20042;-77
2023/11/07 00:57:34;;;;;;;9.05;2.90;;;;;;;;;;4949716;28;20035;-78
2023/11/07 00:59:59;;;;;;;9.70;2.63;;;;;;;;;;4951030;28;20042;-77
2023/11/07 01:02:25;;;;;;;6.60;2.45;;;;;;;;;;4966891;28;20031;-77
2023/11/07 01:04:50;;;;;;;11.60;2.50;;;;;;;;;;4964585;28;20041;-77
2023/11/07 01:07:16;;;;;;;5.97;1.98;;;;;;;;;;4964891;28;20034;-78
2023/11/07 01:09:41;;;;;;;10.88;2.83;;;;;;;;;;4965942;28;20124;-78
2023/11/07 01:12:08;;;;;;;7.28;2.30;;;;;;;;;;4966909;28;20058;-79
2023/11/07 01:14:34;;;;;;;6.45;2.35;;;;;;;;;;4964338;28;20030;-78
2023/11/07 01:16:59;;;;;;;6.25;2.10;;;;;;;;;;4962645;28;20037;-78
2023/11/07 01:19:24;;;;;;;8.18;2.13;;;;;;;;;;4947040;28;20030;-78
2023/11/07 01:21:49;;;;;;;5.57;2.15;;;;;;;;;;4965418;28;20034;-78
2023/11/07 01:24:15;;;;;;;7.43;2.38;;;;;;;;;;4960913;28;20030;-78
2023/11/07 01:26:40;;;;;;;7.05;2.47;;;;;;;;;;4971122;28;20034;-78
2023/11/07 01:29:06;;;;;;;5.07;1.80;;;;;;;;;;4958700;28;20031;-78
2023/11/07 01:31:32;;;;;;;5.88;2.05;;;;;;;;;;4972308;28;20038;-79
2023/11/07 01:33:57;;;;;;;5.75;2.20;;;;;;;;;;4962188;28;20034;-78
2023/11/07 01:36:22;;;;;;;7.60;2.38;;;;;;;;;;4985697;28;20041;-78
2023/11/07 01:38:48;;;;;;;5.78;2.20;;;;;;;;;;4965153;28;20034;-78
2023/11/07 01:41:13;;;;;;;9.63;2.30;;;;;;;;;;4953465;28;20034;-78
2023/11/07 01:43:39;;;;;;;8.40;2.63;;;;;;;;;;4979644;28;20093;-78
2023/11/07 01:46:05;;;;;;;5.95;2.50;;;;;;;;;;4971230;28;20034;-78
2023/11/07 01:48:31;;;;;;;8.52;2.40;;;;;;;;;;4973426;28;20022;-78
2023/11/07 01:50:57;;;;;;;7.25;2.28;;;;;;;;;;4975481;28;20404;-79
2023/11/07 01:53:24;;;;;;;6.78;2.17;;;;;;;;;;4952424;28;20031;-78
2023/11/07 01:55:49;;;;;;;7.40;2.35;;;;;;;;;;4963504;28;20113;-78
2023/11/07 01:58:16;;;;;;;9.20;2.50;;;;;;;;;;4948358;28;20552;-78
2023/11/07 02:00:43;;;;;;;8.13;2.28;;;;;;;;;;4968313;28;20519;-78
2023/11/07 02:03:09;;;;;;;5.63;1.95;;;;;;;;;;4979043;28;21761;-78
2023/11/07 02:05:34;;;;;;;8.30;2.10;;;;;;;;;;4969662;28;20034;-79
2023/11/07 02:08:00;;;;;;;9.20;2.50;;;;;;;;;;4967335;28;20034;-78
2023/11/07 02:10:25;;;;;;;10.48;2.55;;;;;;;;;;4973482;28;20031;-78
2023/11/07 02:12:51;;;;;;;9.52;2.38;;;;;;;;;;4956190;28;20173;-78
2023/11/07 02:15:26;;;;;;;6.95;2.17;;;;;;;;;;4976972;28;20377;-78
2023/11/07 02:17:52;;;;;;;7.43;2.28;;;;;;;;;;4975605;28;20034;-78
2023/11/07 02:20:17;;;;;;;6.25;2.00;;;;;;;;;;4961555;28;20077;-78
2023/11/07 02:22:48;;;;;;;6.50;2.03;;;;;;;;;;4977484;28;20022;-79
2023/11/07 02:25:15;;;;;;;7.22;2.38;;;;;;;;;;4977535;28;20033;-78
2023/11/07 02:27:41;;;;;;;7.55;2.45;;;;;;;;;;4974600;28;20042;-78
2023/11/07 02:30:11;;;;;;;5.63;2.05;;;;;;;;;;4978386;28;20026;-77
2023/11/07 02:32:38;;;;;;;7.57;2.60;;;;;;;;;;4978923;28;20030;-78
2023/11/07 02:35:03;;;;;;;7.30;2.30;;;;;;;;;;4983902;28;20036;-78
2023/11/07 02:37:29;;;;;;;9.55;2.50;;;;;;;;;;4963163;28;20031;-78
2023/11/07 02:39:54;;;;;;;5.53;2.10;;;;;;;;;;4962623;28;20037;-78
2023/11/07 02:42:21;;;;;;;6.50;2.03;;;;;;;;;;4981022;28;20056;-78
2023/11/07 02:44:46;;;;;;;6.40;2.60;;;;;;;;;;4977007;28;20042;-78
2023/11/07 02:47:11;;;;;;;10.90;2.40;;;;;;;;;;4968424;28;20026;-78
2023/11/07 02:49:38;;;;;;;7.50;2.38;;;;;;;;;;4980012;28;20023;-78
2023/11/07 02:52:03;;;;;;;6.63;2.33;;;;;;;;;;4978472;28;20040;-78
2023/11/07 02:54:29;;;;;;;6.47;2.40;;;;;;;;;;4976644;28;20149;-78
2023/11/07 02:56:55;;;;;;;6.35;1.92;;;;;;;;;;4984545;28;20114;-77
2023/11/07 02:59:21;;;;;;;5.68;2.00;;;;;;;;;;4980346;28;20026;-77
2023/11/07 03:01:50;;;;;;;7.10;1.95;;;;;;;;;;4964730;28;20034;-76
2023/11/07 03:04:15;;;;;;;6.80;2.20;;;;;;;;;;4973600;28;20481;-77
2023/11/07 03:06:40;;;;;;;6.88;2.13;;;;;;;;;;4979780;28;20044;-77
2023/11/07 03:09:06;;;;;;;5.78;2.05;;;;;;;;;;4967546;28;20089;-77
2023/11/07 03:11:32;;;;;;;5.88;2.22;;;;;;;;;;4980434;28;20113;-76
2023/11/07 03:13:57;;;;;;;9.02;2.83;;;;;;;;;;4969655;28;20041;-78
2023/11/07 03:16:23;;;;;;;5.28;2.10;;;;;;;;;;4965985;28;20026;-77
2023/11/07 03:18:48;;;;;;;8.70;2.45;;;;;;;;;;4974417;28;20043;-77
2023/11/07 03:21:14;;;;;;;6.60;2.10;;;;;;;;;;4974892;28;20110;-77
2023/11/07 03:23:39;;;;;;;7.78;2.70;;;;;;;;;;4960405;28;20057;-77
2023/11/07 03:26:05;;;;;;;8.23;2.15;;;;;;;;;;4983592;28;20097;-78
2023/11/07 03:28:31;;;;;;;5.50;1.90;;;;;;;;;;4973740;28;20117;-79
2023/11/07 03:30:56;;;;;;;7.22;2.10;;;;;;;;;;4957226;28;20607;-78
2023/11/07 03:33:21;;;;;;;5.75;2.00;;;;;;;;;;4972563;28;20035;-79
2023/11/07 03:35:47;;;;;;;5.80;2.10;;;;;;;;;;4977968;28;20022;-78
2023/11/07 03:38:13;;;;;;;7.53;2.40;;;;;;;;;;4974341;28;20046;-78
2023/11/07 03:40:39;;;;;;;6.95;2.42;;;;;;;;;;4980992;28;20397;-78
2023/11/07 03:43:05;;;;;;;7.10;2.10;;;;;;;;;;4959084;28;20023;-78
2023/11/07 03:45:30;;;;;;;10.77;2.22;;;;;;;;;;4974353;28;20484;-78
2023/11/07 03:47:56;;;;;;;7.88;2.72;;;;;;;;;;4983269;28;20079;-78
2023/11/07 03:50:23;;;;;;;6.65;2.30;;;;;;;;;;4958042;28;20121;-79
2023/11/07 03:52:48;;;;;;;7.13;2.25;;;;;;;;;;4978688;28;20027;-79
2023/11/07 03:55:14;;;;;;;7.70;2.60;;;;;;;;;;4979805;28;20558;-78
2023/11/07 03:57:40;;;;;;;8.70;2.90;;;;;;;;;;4954680;28;20034;-78
2023/11/07 04:00:10;;;;;;;5.97;2.10;;;;;;;;;;4970657;28;20041;-78
2023/11/07 04:02:35;;;;;;;7.78;2.67;;;;;;;;;;4959296;28;20031;-79
2023/11/07 04:05:01;;;;;;;8.02;2.75;;;;;;;;;;4966533;28;20031;-79
2023/11/07 04:07:26;;;;;;;8.40;2.80;;;;;;;;;;4948990;28;20076;-77
2023/11/07 04:09:51;;;;;;;7.72;3.10;;;;;;;;;;4968998;28;20122;-77
2023/11/07 04:12:17;;;;;;;5.97;2.30;;;;;;;;;;4971816;28;20113;-77
2023/11/07 04:14:45;;;;;;;8.60;2.50;;;;;;;;;;4965501;28;20118;-77
2023/11/07 04:17:10;;;;;;;7.55;2.58;;;;;;;;;;4966674;28;20058;-77
2023/11/07 04:19:36;;;;;;;7.25;2.70;;;;;;;;;;4965957;28;20331;-77
2023/11/07 04:22:04;;;;;;;8.60;2.80;;;;;;;;;;4964198;28;20023;-77
2023/11/07 04:24:30;;;;;;;7.05;2.67;;;;;;;;;;4967971;28;20065;-77
2023/11/07 04:26:57;;;;;;;5.75;2.58;;;;;;;;;;4965098;28;20057;-76
2023/11/07 04:29:23;;;;;;;8.63;2.90;;;;;;;;;;4973824;28;20046;-77
2023/11/07 04:31:48;;;;;;;7.60;3.30;;;;;;;;;;4979541;28;20026;-77
2023/11/07 04:34:14;;;;;;;8.15;2.83;;;;;;;;;;4974702;28;20038;-77
2023/11/07 04:36:39;;;;;;;7.30;3.17;;;;;;;;;;4977968;28;20030;-78
2023/11/07 04:39:06;;;;;;;9.57;3.25;;;;;;;;;;4977926;28;20026;-78
2023/11/07 04:41:33;;;;;;;9.93;3.30;;;;;;;;;;4961527;28;20030;-78
2023/11/07 04:44:02;;;;;;;6.28;3.00;;;;;;;;;;4978620;28;20023;-78
2023/11/07 04:46:28;;;;;;;9.88;3.38;;;;;;;;;;4976863;28;20035;-78
2023/11/07 04:48:54;;;;;;;8.02;3.30;;;;;;;;;;4981517;28;20121;-78
2023/11/07 04:51:20;;;;;;;8.38;3.13;;;;;;;;;;4972793;28;20038;-79
2023/11/07 04:53:49;;;;;;;6.75;3.20;;;;;;;;;;4973372;28;20109;-78
2023/11/07 04:56:15;;;;;;;24.50;3.67;;;;;;;;;;4979884;28;20038;-78
2023/11/07 04:58:41;;;;;;;6.07;2.95;;;;;;;;;;4977757;28;20080;-78
2023/11/07 05:01:07;;;;;;;8.27;3.40;;;;;;;;;;4949942;28;20027;-79
2023/11/07 05:03:33;;;;;;;8.52;3.80;;;;;;;;;;4979203;28;20495;-78
2023/11/07 05:05:59;;;;;;;7.97;3.80;;;;;;;;;;4954151;28;20117;-79
2023/11/07 05:08:24;;;;;;;7.45;3.90;;;;;;;;;;4968961;28;20547;-79
2023/11/07 05:10:50;;;;;;;9.63;3.92;;;;;;;;;;4959749;28;20035;-78
2023/11/07 05:13:15;;;;;;;7.72;4.07;;;;;;;;;;4957604;28;20092;-77
2023/11/07 05:15:44;;;;;;;11.07;4.43;;;;;;;;;;4951673;28;20035;-78
2023/11/07 05:18:11;;;;;;;13.13;3.95;;;;;;;;;;4970378;28;20553;-78
2023/11/07 05:20:36;;;;;;;7.78;4.47;;;;;;;;;;4978161;28;20038;-79
2023/11/07 05:23:02;;;;;;;13.18;5.35;;;;;;;;;;4969378;28;20015;-78
2023/11/07 05:25:27;;;;;;;7.03;4.15;;;;;;;;;;4954651;28;20088;-79
2023/11/07 05:27:53;;;;;;;6.90;3.75;;;;;;;;;;4955000;28;20023;-77
2023/11/07 05:30:18;;;;;;;12.50;4.60;;;;;;;;;;4947767;28;20042;-76
2023/11/07 05:32:47;;;;;;;9.00;4.38;;;;;;;;;;4966956;28;21430;-77
2023/11/07 05:35:16;;;;;;;9.60;4.60;;;;;;;;;;4971878;28;20023;-77
2023/11/07 05:37:42;;;;;;;9.23;4.25;;;;;;;;;;4944584;28;20043;-77
2023/11/07 05:40:13;;;;;;;8.63;4.07;;;;;;;;;;4945019;28;20495;-77
2023/11/07 05:42:40;;;;;;;9.45;4.40;;;;;;;;;;4963143;28;20062;-77
2023/11/07 05:45:07;;;;;;;8.30;4.85;;;;;;;;;;4947675;28;20019;-77
2023/11/07 05:47:33;;;;;;;7.25;4.00;;;;;;;;;;4965023;28;20065;-77
2023/11/07 05:49:58;;;;;;;9.35;4.13;;;;;;;;;;4965701;28;20047;-77
2023/11/07 05:52:24;;;;;;;8.50;4.30;;;;;;;;;;4964575;28;20389;-76
2023/11/07 05:54:49;;;;;;;9.25;4.72;;;;;;;;;;4963292;28;20126;-77
2023/11/07 05:57:14;;;;;;;8.75;4.50;;;;;;;;;;4967804;28;20023;-77
2023/11/07 05:59:40;;;;;;;8.18;4.38;;;;;;;;;;4954234;28;20058;-77
2023/11/07 06:02:05;;;;;;;10.32;4.78;;;;;;;;;;4949173;28;20031;-77
2023/11/07 06:04:33;;;;;;;9.55;4.40;;;;;;;;;;4968520;28;20039;-77
2023/11/07 06:07:01;;;;;;;10.57;4.65;;;;;;;;;;4958094;28;20027;-77
2023/11/07 06:09:26;;;;;;;9.82;4.80;;;;;;;;;;4969196;28;20031;-77
2023/11/07 06:11:56;;;;;;;8.50;4.22;;;;;;;;;;4967022;28;20551;-77
2023/11/07 06:14:22;;;;;;;8.77;3.72;;;;;;;;;;4966190;28;20031;-77
2023/11/07 06:16:48;;;;;;;8.52;4.32;;;;;;;;;;4980914;28;20428;-77
2023/11/07 06:19:13;;;;;;;9.35;3.80;;;;;;;;;;4953372;28;20041;-77
2023/11/07 06:21:38;;;;;;;9.68;4.18;;;;;;;;;;4968572;28;20547;-77
2023/11/07 06:24:04;;;;;;;6.82;3.88;;;;;;;;;;4965641;28;20031;-77
2023/11/07 06:26:30;;;;;;;8.07;4.10;;;;;;;;;;4953001;28;20042;-77
2023/11/07 06:28:56;;;;;;;8.07;3.47;;;;;;;;;;4975786;28;20154;-78
2023/11/07 06:31:26;;;;;;;9.18;4.10;;;;;;;;;;4980079;28;20129;-77
2023/11/07 06:33:52;;;;;;;9.88;3.60;;;;;;;;;;4980201;28;20039;-77
2023/11/07 06:36:17;;;;;;;11.25;4.07;;;;;;;;;;4977839;28;20039;-77
2023/11/07 06:38:43;;;;;;;9.88;3.97;;;;;;;;;;4979537;28;20037;-77
2023/11/07 06:41:08;;;;;;;9.80;4.45;;;;;;;;;;4956644;28;20038;-77
2023/11/07 06:43:35;;;;;;;8.20;4.25;;;;;;;;;;4961683;28;20081;-77
2023/11/07 06:46:01;;;;;;;7.95;4.38;;;;;;;;;;4977889;28;20029;-77
2023/11/07 06:48:28;;;;;;;9.32;4.30;;;;;;;;;;4976963;28;20054;-77
2023/11/07 06:50:54;;;;;;;9.70;4.50;;;;;;;;;;4979727;28;20038;-77
2023/11/07 06:53:20;;;;;;;9.18;5.15;;;;;;;;;;4961112;28;20046;-77
2023/11/07 06:55:45;;;;;;;7.95;4.43;;;;;;;;;;4979282;28;20072;-79
2023/11/07 06:58:11;;;;;;;10.77;4.35;;;;;;;;;;4957626;28;20038;-78
2023/11/07 07:00:38;;;;;;;8.90;4.40;;;;;;;;;;4965660;28;20473;-78
2023/11/07 07:03:04;;;;;;;8.93;3.95;;;;;;;;;;4984727;28;20026;-79
2023/11/07 07:05:30;;;;;;;9.05;4.47;;;;;;;;;;4951542;28;20023;-78
2023/11/07 07:07:56;;;;;;;7.90;4.28;;;;;;;;;;4975733;28;20129;-79
2023/11/07 07:10:22;;;;;;;10.32;4.25;;;;;;;;;;4966942;28;20141;-78
2023/11/07 07:12:48;;;;;;;8.20;3.75;;;;;;;;;;4957996;28;20477;-79
2023/11/07 07:15:14;;;;;;;7.28;4.18;;;;;;;;;;4976333;28;20033;-78
2023/11/07 07:17:40;;;;;;;7.30;4.10;;;;;;;;;;4952603;28;20050;-78
2023/11/07 07:20:12;;;;;;;8.38;4.20;;;;;;;;;;4973792;28;20058;-78
2023/11/07 07:22:41;;;;;;;9.00;4.13;;;;;;;;;;4940034;28;20030;-78
2023/11/07 07:25:15;;;;;;;9.13;4.15;;;;;;;;;;4975219;28;20312;-78
2023/11/07 07:27:45;;;;;;;7.68;3.83;;;;;;;;;;4978121;28;20027;-78
2023/11/07 07:30:16;;;;;;;7.32;4.03;;;;;;;;;;4971019;28;20094;-78
2023/11/07 07:32:42;;;;;;;7.32;4.22;;;;;;;;;;4972643;28;20118;-79
2023/11/07 07:35:15;;;;;;;7.15;3.65;;;;;;;;;;4972561;28;20053;-78
2023/11/07 07:37:43;;;;;;;7.78;4.25;;;;;;;;;;4971780;28;20057;-79
2023/11/07 07:40:14;;;;;;;8.50;4.10;;;;;;;;;;4973341;28;20126;-79
2023/11/07 07:42:43;;;;;;;7.88;4.05;;;;;;;;;;4974528;28;20073;-79
2023/11/07 07:45:11;;;;;;;7.22;3.85;;;;;;;;;;4982175;28;20111;-79
2023/11/07 07:47:37;;;;;;;7.40;3.97;;;;;;;;;;4957075;28;20495;-79
2023/11/07 07:50:09;;;;;;;7.88;4.25;;;;;;;;;;4974673;28;20069;-79
2023/11/07 07:52:43;;;;;;;8.18;3.92;;;;;;;;;;4958048;28;20037;-79
2023/11/07 07:55:12;;;;;;;6.22;3.65;;;;;;;;;;4975835;28;20041;-79
2023/11/07 07:57:38;;;;;;;6.25;3.50;;;;;;;;;;4973883;28;20124;-78
2023/11/07 08:00:15;;;;;;;8.88;4.00;;;;;;;;;;4963415;28;20489;-79
2023/11/07 08:02:46;;;;;;;6.60;3.65;;;;;;;;;;4976878;28;20070;-79
2023/11/07 08:05:17;;;;;;;6.63;3.80;;;;;;;;;;4961102;28;20039;-79
2023/11/07 08:07:43;;;;;;;8.57;3.72;;;;;;;;;;4955793;28;20403;-76
2023/11/07 08:10:09;;;;;;;8.68;3.55;;;;;;;;;;4974716;28;20409;-76
2023/11/07 08:12:36;;;;;;;8.15;3.83;;;;;;;;;;4959174;28;20082;-77
2023/11/07 08:15:02;;;;;;;6.85;3.40;;;;;;;;;;4976086;28;20019;-76
2023/11/07 08:17:28;;;;;;;7.20;3.20;;;;;;;;;;4959008;28;20373;-77
2023/11/07 08:19:53;;;;;;;5.40;2.70;;;;;;;;;;4976715;28;20042;-77
2023/11/07 08:22:18;;;;;;;6.82;3.25;;;;;;;;;;4959926;28;20503;-77
2023/11/07 08:24:44;;;;;;;8.77;3.90;;;;;;;;;;4971325;28;20393;-77
2023/11/07 08:27:10;;;;;;;6.60;2.85;;;;;;;;;;4956929;28;20031;-76
2023/11/07 08:29:36;;;;;;;6.95;3.00;;;;;;;;;;4980030;28;20030;-76
2023/11/07 08:32:01;;;;;;;6.68;2.78;;;;;;;;;;4974333;28;20037;-76
2023/11/07 08:34:32;;;;;;;8.50;2.92;;;;;;;;;;4955957;28;20034;-76
2023/11/07 08:36:57;;;;;;;7.57;3.00;;;;;;;;;;4973837;28;20030;-76
2023/11/07 08:39:27;;;;;;;7.05;3.10;;;;;;;;;;4957176;28;20030;-76
2023/11/07 08:41:56;;;;;;;6.22;2.72;;;;;;;;;;4972133;28;20050;-77
2023/11/07 08:44:22;;;;;;;6.78;2.60;;;;;;;;;;4958791;28;20127;-77
2023/11/07 08:46:48;;;;;;;5.53;2.90;;;;;;;;;;4945316;28;20030;-77
2023/11/07 08:49:17;;;;;;;8.82;3.55;;;;;;;;;;4962723;28;20038;-77
2023/11/07 08:51:44;;;;;;;6.28;3.30;;;;;;;;;;4963622;28;20031;-77
2023/11/07 08:54:10;;;;;;;6.35;2.67;;;;;;;;;;4950222;28;20057;-77
2023/11/07 08:56:36;;;;;;;5.57;2.80;;;;;;;;;;4960859;28;20397;-76
2023/11/07 08:59:01;;;;;;;5.80;3.17;;;;;;;;;;4965440;28;20061;-76
2023/11/07 09:01:26;;;;;;;6.53;3.25;;;;;;;;;;4945897;28;20047;-77
2023/11/07 09:03:52;;;;;;;5.95;3.10;;;;;;;;;;4962252;28;20044;-77
2023/11/07 09:06:19;;;;;;;5.90;3.05;;;;;;;;;;4975627;28;20286;-77
2023/11/07 09:08:45;;;;;;;6.00;3.10;;;;;;;;;;4952296;28;20066;-77
2023/11/07 09:11:11;;;;;;;6.53;3.30;;;;;;;;;;4953960;28;20038;-77
2023/11/07 09:13:37;;;;;;;6.72;3.08;;;;;;;;;;4974188;28;20081;-77
2023/11/07 09:16:03;;;;;;;6.78;3.70;;;;;;;;;;4977744;28;20102;-77
2023/11/07 09:18:29;;;;;;;6.68;3.42;;;;;;;;;;4973971;28;20034;-77
2023/11/07 09:20:55;;;;;;;7.40;3.30;;;;;;;;;;4973282;28;20033;-77
2023/11/07 09:23:21;;;;;;;5.80;3.28;;;;;;;;;;4973283;28;20045;-77
2023/11/07 09:25:46;;;;;;;8.75;2.97;;;;;;;;;;4956345;28;20362;-77
2023/11/07 09:28:12;;;;;;;8.15;3.08;;;;;;;;;;4961179;28;20045;-77
2023/11/07 09:30:38;;;;;;;5.72;2.95;;;;;;;;;;4977727;28;20022;-77
2023/11/07 09:33:06;;;;;;;6.63;3.13;;;;;;;;;;4958559;28;20385;-77
2023/11/07 09:35:35;;;;;;;6.97;2.97;;;;;;;;;;4959989;28;20117;-77
2023/11/07 09:38:03;;;;;;;5.75;2.78;;;;;;;;;;4955505;28;20031;-77
2023/11/07 09:40:29;;;;;;;5.68;2.88;;;;;;;;;;4976243;28;20034;-77
2023/11/07 09:42:55;;;;;;;5.43;2.70;;;;;;;;;;4973247;28;20113;-76
2023/11/07 09:45:21;;;;;;;5.75;2.72;;;;;;;;;;4974112;28;20038;-77
2023/11/07 09:47:48;;;;;;;6.47;3.05;;;;;;;;;;4973348;28;20110;-77
2023/11/07 09:50:16;;;;;;;6.47;2.53;;;;;;;;;;4960038;28;20109;-77
2023/11/07 09:52:45;;;;;;;5.35;2.40;;;;;;;;;;4971030;28;20032;-76
2023/11/07 09:55:15;;;;;;;5.38;2.45;;;;;;;;;;4980080;28;20034;-77
2023/11/07 09:57:42;;;;;;;8.85;2.88;;;;;;;;;;4971848;28;20086;-77
2023/11/07 10:00:09;;;;;;;5.53;2.40;;;;;;;;;;4959723;28;20052;-77
2023/11/07 10:02:35;;;;;;;6.03;2.70;;;;;;;;;;4964990;28;20019;-77
2023/11/07 10:05:02;;;;;;;5.43;2.50;;;;;;;;;;4969856;28;20034;-77
2023/11/07 10:07:28;;;;;;;6.25;2.92;;;;;;;;;;4976859;28;20476;-76
2023/11/07 10:09:54;;;;;;;7.90;2.67;;;;;;;;;;4976673;28;20085;-77
2023/11/07 10:12:20;;;;;;;6.50;2.75;;;;;;;;;;4971944;28;20041;-77
2023/11/07 10:14:46;;;;;;;4.18;2.17;;;;;;;;;;4978727;28;20472;-77
2023/11/07 10:17:22;;;;;;;7.35;2.60;;;;;;;;;;4953821;28;20046;-77
2023/11/07 10:20:04;;;;;;;5.30;2.60;;;;;;;;;;4971388;28;20034;-77
2023/11/07 10:22:41;;;;;;;7.05;2.45;;;;;;;;;;4956762;28;20033;-77
2023/11/07 10:25:07;;;;;;;5.13;2.55;;;;;;;;;;4973482;28;20408;-77
2023/11/07 10:27:32;;;;;;;6.53;2.30;;;;;;;;;;4978521;28;20107;-78
2023/11/07 10:29:58;;;;;;;7.47;2.40;;;;;;;;;;4976194;28;20050;-78
2023/11/07 10:32:23;;;;;;;6.68;2.50;;;;;;;;;;4965774;28;20034;-78
2023/11/07 10:35:00;;;;;;;4.97;2.20;;;;;;;;;;4972003;28;20508;-79
2023/11/07 10:37:32;;;;;;;4.70;2.10;;;;;;;;;;4978031;28;20125;-78
2023/11/07 10:39:58;;;;;;;4.55;1.95;;;;;;;;;;4955813;28;20034;-78
2023/11/07 10:42:29;;;;;;;5.68;2.38;;;;;;;;;;4956915;28;20059;-78
2023/11/07 10:44:59;;;;;;;5.53;1.92;;;;;;;;;;4976348;28;20460;-78
2023/11/07 10:47:34;;;;;;;6.15;2.30;;;;;;;;;;4975865;28;20030;-78
2023/11/07 10:50:00;;;;;;;4.70;1.90;;;;;;;;;;4956314;28;20080;-78
2023/11/07 10:52:27;;;;;;;5.60;2.03;;;;;;;;;;4957021;28;20139;-78
2023/11/07 10:54:52;;;;;;;3.95;2.00;;;;;;;;;;4978012;28;20047;-79
2023/11/07 10:57:23;;;;;;;6.18;2.30;;;;;;;;;;4973370;28;20523;-78
2023/11/07 10:59:49;;;;;;;4.80;2.20;;;;;;;;;;4955343;28;20023;-78
2023/11/07 11:02:16;;;;;;;5.18;2.28;;;;;;;;;;4971450;28;20088;-78
2023/11/07 11:04:42;;;;;;;6.93;2.20;;;;;;;;;;4982734;28;20049;-79
2023/11/07 11:07:08;;;;;;;6.28;2.30;;;;;;;;;;4976998;28;20031;-79
2023/11/07 11:09:41;;;;;;;4.35;2.20;;;;;;;;;;4974893;28;20035;-78
2023/11/07 11:12:08;;;;;;;5.95;2.50;;;;;;;;;;4974653;28;20084;-78
2023/11/07 11:14:33;;;;;;;4.57;2.40;;;;;;;;;;4962639;28;20054;-78
2023/11/07 11:17:11;;;;;;;6.82;2.40;;;;;;;;;;4990269;28;20053;-77
2023/11/07 11:20:00;;;;;;;4.75;2.30;;;;;;;;;;4960470;28;20030;-77
2023/11/07 11:22:34;;;;;;;5.03;2.60;;;;;;;;;;4975261;28;20099;-77
2023/11/07 11:25:38;;;;;;;5.65;2.30;;;;;;;;;;4975591;28;20031;-77
2023/11/07 11:28:05;;;;;;;4.18;2.15;;;;;;;;;;4983917;28;20022;-77
2023/11/07 11:30:38;;;;;;;6.57;2.30;;;;;;;;;;4970775;28;20034;-76
2023/11/07 11:33:11;;;;;;;7.20;3.08;;;;;;;;;;4980429;28;20424;-76
2023/11/07 11:35:41;;;;;;;7.22;2.40;;;;;;;;;;4987945;28;20493;-77
2023/11/07 11:38:13;;;;;;;7.50;2.63;;;;;;;;;;4986641;28;20057;-76
2023/11/07 11:41:01;;;;;;;5.82;2.42;;;;;;;;;;4980467;28;20023;-76
2023/11/07 11:43:34;;;;;;;4.95;2.40;;;;;;;;;;4962802;28;20037;-76
2023/11/07 11:46:14;;;;;;;4.07;2.28;;;;;;;;;;4957491;28;20031;-76
2023/11/07 11:48:52;;;;;;;6.05;2.20;;;;;;;;;;4961975;28;20058;-76
2023/11/07 11:51:32;;;;;;;4.35;2.03;;;;;;;;;;4972628;28;20022;-76
2023/11/07 11:53:59;;;;;;;5.50;2.63;;;;;;;;;;4984037;28;20547;-76
2023/11/07 11:56:25;;;;;;;7.32;2.60;;;;;;;;;;4944897;28;20031;-76
2023/11/07 11:59:06;;;;;;;6.72;2.65;;;;;;;;;;4973322;28;20596;-76
2023/11/07 12:01:52;;;;;;;6.65;2.63;;;;;;;;;;4976502;28;20031;-76
2023/11/07 12:04:37;;;;;;;4.72;2.60;;;;;;;;;;4957899;28;20561;-76
2023/11/07 12:07:21;;;;;;;4.75;2.65;;;;;;;;;;4976664;28;20034;-76
2023/11/07 12:09:59;;;;;;;6.10;2.60;;;;;;;;;;4973557;28;20538;-76
2023/11/07 12:12:24;;;;;;;5.15;2.83;;;;;;;;;;4977673;28;20050;-76
2023/11/07 12:15:02;;;;;;;6.38;2.85;;;;;;;;;;4979176;28;20611;-76
2023/11/07 12:17:32;;;;;;;4.60;2.53;;;;;;;;;;4968100;28;20105;-76
2023/11/07 12:20:06;;;;;;;5.13;2.80;;;;;;;;;;4974143;28;20027;-76
2023/11/07 12:22:35;;;;;;;5.85;2.80;;;;;;;;;;4957731;28;20023;-77
2023/11/07 12:25:16;;;;;;;5.95;2.90;;;;;;;;;;4966233;28;20034;-76
2023/11/07 12:28:05;;;;;;;5.75;3.08;;;;;;;;;;4967429;28;20030;-77
2023/11/07 12:30:37;;;;;;;9.23;4.43;;;;;;;;;;4974534;28;20167;-76
2023/11/07 12:33:06;;;;;;;5.82;2.95;;;;;;;;;;4963285;28;20110;-76
2023/11/07 12:35:31;;;;;;;5.93;2.88;;;;;;;;;;4974612;28;20130;-76
2023/11/07 12:38:01;;;;;;;6.53;2.90;;;;;;;;;;4956298;28;20096;-76
2023/11/07 12:40:27;;;;;;;4.75;2.83;;;;;;;;;;4974229;28;20023;-76
2023/11/07 12:42:54;;;;;;;5.55;3.10;;;;;;;;;;4980180;28;20550;-77
2023/11/07 12:45:28;;;;;;;4.32;2.53;;;;;;;;;;4973226;28;20027;-76
2023/11/07 12:47:59;;;;;;;5.10;3.20;;;;;;;;;;4956190;28;20030;-78
2023/11/07 12:50:30;;;;;;;6.00;3.00;;;;;;;;;;4976958;28;20095;-78
2023/11/07 12:53:00;;;;;;;7.47;3.10;;;;;;;;;;4985115;28;20022;-78
2023/11/07 12:55:30;;;;;;;6.45;3.10;;;;;;;;;;4957136;28;20482;-78
2023/11/07 12:57:57;;;;;;;8.68;3.33;;;;;;;;;;4973340;28;20037;-78
2023/11/07 13:00:56;;;;;;;5.93;2.72;;;;;;;;;;4959966;28;20027;-78
2023/11/07 13:03:22;;;;;;;5.78;2.95;;;;;;;;;;4952895;28;20045;-79
2023/11/07 13:06:05;;;;;;;5.60;2.75;;;;;;;;;;4969799;28;20062;-79
2023/11/07 13:08:31;;;;;;;5.55;2.90;;;;;;;;;;4974919;28;20172;-79
2023/11/07 13:11:19;;;;;;;5.03;2.92;;;;;;;;;;4979782;28;20501;-79
2023/11/07 13:13:46;;;;;;;5.78;2.90;;;;;;;;;;4970844;28;20122;-79
2023/11/07 13:16:12;;;;;;;4.90;2.75;;;;;;;;;;4974316;28;20038;-79
2023/11/07 13:18:46;;;;;;;7.15;2.80;;;;;;;;;;4978414;28;20476;-79
2023/11/07 13:21:13;;;;;;;5.82;3.10;;;;;;;;;;4955576;28;20492;-78
2023/11/07 13:23:38;;;;;;;5.60;3.10;;;;;;;;;;4957821;28;20023;-79
2023/11/07 13:26:07;;;;;;;6.30;2.83;;;;;;;;;;4972549;28;20031;-78
2023/11/07 13:28:36;;;;;;;6.95;3.10;;;;;;;;;;4972956;28;20073;-79
2023/11/07 13:31:02;;;;;;;7.32;2.80;;;;;;;;;;4956822;28;20069;-79
2023/11/07 13:33:28;;;;;;;9.35;2.95;;;;;;;;;;4972050;28;20035;-78
2023/11/07 13:35:53;;;;;;;6.28;3.03;;;;;;;;;;4981255;28;20394;-79
2023/11/07 13:38:18;;;;;;;4.30;2.70;;;;;;;;;;4978767;28;20484;-78
2023/11/07 13:40:45;;;;;;;6.00;2.53;;;;;;;;;;4962058;28;20031;-79
2023/11/07 13:43:11;;;;;;;4.07;2.70;;;;;;;;;;4968235;28;20034;-79
2023/11/07 13:45:37;;;;;;;5.80;2.72;;;;;;;;;;4958138;28;20035;-79
2023/11/07 13:48:02;;;;;;;5.70;3.00;;;;;;;;;;4955979;28;20042;-79
2023/11/07 13:50:28;;;;;;;5.28;2.70;;;;;;;;;;4977875;28;20372;-78
2023/11/07 13:52:58;;;;;;;5.50;2.50;;;;;;;;;;4944216;28;20027;-79
2023/11/07 13:55:24;;;;;;;8.55;2.90;;;;;;;;;;4951675;28;20404;-78
2023/11/07 13:57:52;;;;;;;7.95;2.50;;;;;;;;;;4956231;28;20026;-79
2023/11/07 14:00:19;;;;;;;6.38;2.58;;;;;;;;;;4972235;28;20022;-79
2023/11/07 14:02:44;;;;;;;4.15;2.30;;;;;;;;;;4982460;28;20022;-79
2023/11/07 14:05:11;;;;;;;5.07;2.33;;;;;;;;;;4961266;28;20105;-79
2023/11/07 14:07:36;;;;;;;7.07;2.80;;;;;;;;;;4969499;28;20103;-79
2023/11/07 14:10:07;;;;;;;6.93;2.45;;;;;;;;;;4950736;28;20055;-78
2023/11/07 14:12:32;;;;;;;7.20;2.30;;;;;;;;;;4951182;28;20475;-79
2023/11/07 14:14:58;;;;;;;3.88;2.30;;;;;;;;;;4957562;28;20084;-79
2023/11/07 14:17:23;;;;;;;6.75;2.60;;;;;;;;;;4968138;28;20421;-79
2023/11/07 14:19:50;;;;;;;6.05;2.20;;;;;;;;;;4954103;28;20037;-78
2023/11/07 14:22:15;;;;;;;8.43;2.50;;;;;;;;;;4970119;28;20027;-79
2023/11/07 14:24:42;;;;;;;4.05;2.03;;;;;;;;;;4950938;28;20045;-79
2023/11/07 14:27:07;;;;;;;4.13;2.10;;;;;;;;;;4962863;28;20134;-79
2023/11/07 14:29:34;;;;;;;7.72;2.40;;;;;;;;;;4960051;28;20445;-78
2023/11/07 14:31:59;;;;;;;5.97;2.20;;;;;;;;;;4976331;28;20041;-79
2023/11/07 14:34:24;;;;;;;4.32;2.25;;;;;;;;;;4969407;28;20030;-79
2023/11/07 14:36:50;;;;;;;3.22;1.75;;;;;;;;;;4965408;28;20039;-79
2023/11/07 14:39:16;;;;;;;3.90;2.03;;;;;;;;;;4968725;28;20084;-78
2023/11/07 14:41:44;;;;;;;4.00;2.22;;;;;;;;;;4951073;28;20050;-78
2023/11/07 14:44:10;;;;;;;4.85;2.30;;;;;;;;;;4951676;28;20035;-78
2023/11/07 14:46:37;;;;;;;4.88;1.80;;;;;;;;;;4966510;28;20058;-78